Cobden, Canada
Current Conditions -  °F | °C
As of 9:00 AM on Saturday 01 Nov 2014 (Local Time) from CYWA Reporting Station
Light Snow Light Snow  
Wind Chill: 27°   Ceiling: 1500
Heat Index: 34°   Visibility: 5mi
Dew Point: 27°   Wind: 8mph
Humidity: 75%   Direction: 10°N
Pressure: 30.23"   Gusts: NA
Location:  45.63°N, 76.88°W
Report Text: CYWA 011300Z AUTO 01007KT 5SM -SN OVC015 01/M03 A3023 RMKSLP245
Loading
Personal Weather Stations






























Interactive Weather Map
Tropical Storm Tracking
New forecast layout! Learn more

10-Day Weather Forecast

Advertisements
Track Severe Weather on mobile